sensor_id;sensor_type;location;lat;lon;timestamp;P1;durP1;ratioP1;P2;durP2;ratioP2
32198;SDS011;73953;42.656;21.156;2024-02-21T00:00:53;37.42;;;24.08;;
32198;SDS011;73953;42.656;21.156;2024-02-21T00:03:20;42.05;;;28.10;;
32198;SDS011;73953;42.656;21.156;2024-02-21T00:05:47;52.92;;;30.05;;
32198;SDS011;73953;42.656;21.156;2024-02-21T00:08:14;60.15;;;33.88;;
32198;SDS011;73953;42.656;21.156;2024-02-21T00:10:42;77.40;;;46.20;;
32198;SDS011;73953;42.656;21.156;2024-02-21T00:13:09;87.32;;;52.13;;
32198;SDS011;73953;42.656;21.156;2024-02-21T00:15:36;92.45;;;52.08;;
32198;SDS011;73953;42.656;21.156;2024-02-21T00:18:03;86.05;;;51.00;;
32198;SDS011;73953;42.656;21.156;2024-02-21T00:20:31;84.00;;;52.03;;
32198;SDS011;73953;42.656;21.156;2024-02-21T00:22:58;94.35;;;53.60;;
32198;SDS011;73953;42.656;21.156;2024-02-21T00:25:25;87.72;;;52.10;;
32198;SDS011;73953;42.656;21.156;2024-02-21T00:27:52;88.10;;;53.03;;
32198;SDS011;73953;42.656;21.156;2024-02-21T00:30:20;85.60;;;51.88;;
32198;SDS011;73953;42.656;21.156;2024-02-21T00:32:47;81.57;;;50.30;;
32198;SDS011;73953;42.656;21.156;2024-02-21T00:35:15;86.85;;;49.50;;
32198;SDS011;73953;42.656;21.156;2024-02-21T00:37:42;87.15;;;51.20;;
32198;SDS011;73953;42.656;21.156;2024-02-21T00:40:09;91.45;;;54.78;;
32198;SDS011;73953;42.656;21.156;2024-02-21T00:42:36;96.18;;;54.80;;
32198;SDS011;73953;42.656;21.156;2024-02-21T00:45:03;89.68;;;53.17;;
32198;SDS011;73953;42.656;21.156;2024-02-21T00:47:31;90.57;;;52.70;;
32198;SDS011;73953;42.656;21.156;2024-02-21T00:49:58;83.90;;;51.17;;
32198;SDS011;73953;42.656;21.156;2024-02-21T00:52:25;85.10;;;50.65;;
32198;SDS011;73953;42.656;21.156;2024-02-21T00:54:52;87.38;;;49.25;;
32198;SDS011;73953;42.656;21.156;2024-02-21T00:57:21;86.75;;;50.63;;
32198;SDS011;73953;42.656;21.156;2024-02-21T00:59:48;85.35;;;50.95;;
32198;SDS011;73953;42.656;21.156;2024-02-21T01:02:15;82.63;;;50.08;;
32198;SDS011;73953;42.656;21.156;2024-02-21T01:04:42;75.65;;;45.75;;
32198;SDS011;73953;42.656;21.156;2024-02-21T01:07:09;69.00;;;41.85;;
32198;SDS011;73953;42.656;21.156;2024-02-21T01:09:36;60.13;;;38.90;;
32198;SDS011;73953;42.656;21.156;2024-02-21T01:12:03;58.78;;;36.03;;
32198;SDS011;73953;42.656;21.156;2024-02-21T01:14:30;51.70;;;33.60;;
32198;SDS011;73953;42.656;21.156;2024-02-21T01:16:57;57.05;;;34.42;;
32198;SDS011;73953;42.656;21.156;2024-02-21T01:19:25;54.53;;;34.05;;
32198;SDS011;73953;42.656;21.156;2024-02-21T01:21:52;62.65;;;38.10;;
32198;SDS011;73953;42.656;21.156;2024-02-21T01:24:19;64.63;;;40.10;;
32198;SDS011;73953;42.656;21.156;2024-02-21T01:26:46;71.35;;;43.85;;
32198;SDS011;73953;42.656;21.156;2024-02-21T01:29:13;73.13;;;43.47;;
32198;SDS011;73953;42.656;21.156;2024-02-21T01:31:40;76.00;;;44.15;;
32198;SDS011;73953;42.656;21.156;2024-02-21T01:34:07;76.00;;;46.65;;
32198;SDS011;73953;42.656;21.156;2024-02-21T01:36:35;70.85;;;45.20;;
32198;SDS011;73953;42.656;21.156;2024-02-21T01:39:02;74.68;;;43.83;;
32198;SDS011;73953;42.656;21.156;2024-02-21T01:41:29;63.42;;;40.72;;
32198;SDS011;73953;42.656;21.156;2024-02-21T01:43:59;51.97;;;31.35;;
32198;SDS011;73953;42.656;21.156;2024-02-21T01:46:27;46.90;;;28.15;;
32198;SDS011;73953;42.656;21.156;2024-02-21T01:48:57;45.00;;;29.33;;
32198;SDS011;73953;42.656;21.156;2024-02-21T01:51:25;46.13;;;28.42;;
32198;SDS011;73953;42.656;21.156;2024-02-21T01:53:52;47.85;;;28.90;;
32198;SDS011;73953;42.656;21.156;2024-02-21T01:56:20;46.15;;;28.90;;
32198;SDS011;73953;42.656;21.156;2024-02-21T01:58:47;55.70;;;33.95;;
32198;SDS011;73953;42.656;21.156;2024-02-21T02:01:15;53.30;;;32.83;;
32198;SDS011;73953;42.656;21.156;2024-02-21T02:03:47;50.63;;;31.83;;
32198;SDS011;73953;42.656;21.156;2024-02-21T02:06:15;48.38;;;31.63;;
32198;SDS011;73953;42.656;21.156;2024-02-21T02:08:42;46.20;;;28.17;;
32198;SDS011;73953;42.656;21.156;2024-02-21T02:11:09;34.75;;;22.42;;
32198;SDS011;73953;42.656;21.156;2024-02-21T02:13:37;32.38;;;22.63;;
32198;SDS011;73953;42.656;21.156;2024-02-21T02:16:06;35.03;;;23.92;;
32198;SDS011;73953;42.656;21.156;2024-02-21T02:18:33;36.47;;;24.50;;
32198;SDS011;73953;42.656;21.156;2024-02-21T02:21:00;38.55;;;25.30;;
32198;SDS011;73953;42.656;21.156;2024-02-21T02:23:28;38.53;;;23.98;;
32198;SDS011;73953;42.656;21.156;2024-02-21T02:25:56;35.33;;;23.85;;
32198;SDS011;73953;42.656;21.156;2024-02-21T02:28:23;39.50;;;26.50;;
32198;SDS011;73953;42.656;21.156;2024-02-21T02:30:50;40.67;;;26.08;;
32198;SDS011;73953;42.656;21.156;2024-02-21T02:33:18;41.75;;;28.65;;
32198;SDS011;73953;42.656;21.156;2024-02-21T02:35:46;44.58;;;27.73;;
32198;SDS011;73953;42.656;21.156;2024-02-21T02:38:20;36.72;;;24.55;;
32198;SDS011;73953;42.656;21.156;2024-02-21T02:40:47;38.00;;;25.00;;
32198;SDS011;73953;42.656;21.156;2024-02-21T02:43:15;36.40;;;22.85;;
32198;SDS011;73953;42.656;21.156;2024-02-21T02:45:43;42.83;;;27.40;;
32198;SDS011;73953;42.656;21.156;2024-02-21T02:48:12;49.60;;;32.22;;
32198;SDS011;73953;42.656;21.156;2024-02-21T02:50:39;45.22;;;28.17;;
32198;SDS011;73953;42.656;21.156;2024-02-21T02:53:06;40.42;;;25.25;;
32198;SDS011;73953;42.656;21.156;2024-02-21T02:55:34;38.92;;;25.65;;
32198;SDS011;73953;42.656;21.156;2024-02-21T02:58:02;38.95;;;24.95;;
32198;SDS011;73953;42.656;21.156;2024-02-21T03:00:29;38.25;;;22.73;;
32198;SDS011;73953;42.656;21.156;2024-02-21T03:02:56;37.28;;;22.55;;
32198;SDS011;73953;42.656;21.156;2024-02-21T03:05:23;29.58;;;19.17;;
32198;SDS011;73953;42.656;21.156;2024-02-21T03:07:51;42.53;;;26.42;;
32198;SDS011;73953;42.656;21.156;2024-02-21T03:10:18;32.15;;;21.33;;
32198;SDS011;73953;42.656;21.156;2024-02-21T03:12:45;39.53;;;25.23;;
32198;SDS011;73953;42.656;21.156;2024-02-21T03:15:13;29.38;;;19.40;;
32198;SDS011;73953;42.656;21.156;2024-02-21T03:17:41;27.55;;;18.73;;
32198;SDS011;73953;42.656;21.156;2024-02-21T03:20:08;28.02;;;17.63;;
32198;SDS011;73953;42.656;21.156;2024-02-21T03:22:38;25.83;;;17.02;;
32198;SDS011;73953;42.656;21.156;2024-02-21T03:25:05;23.05;;;17.13;;
32198;SDS011;73953;42.656;21.156;2024-02-21T03:27:33;22.20;;;15.52;;
32198;SDS011;73953;42.656;21.156;2024-02-21T03:30:00;26.23;;;16.00;;
32198;SDS011;73953;42.656;21.156;2024-02-21T03:32:28;29.75;;;17.35;;
32198;SDS011;73953;42.656;21.156;2024-02-21T03:34:57;27.60;;;17.73;;
32198;SDS011;73953;42.656;21.156;2024-02-21T03:37:24;22.60;;;16.65;;
32198;SDS011;73953;42.656;21.156;2024-02-21T03:39:53;26.35;;;17.00;;
32198;SDS011;73953;42.656;21.156;2024-02-21T03:42:20;26.30;;;17.35;;
32198;SDS011;73953;42.656;21.156;2024-02-21T03:44:47;25.42;;;17.25;;
32198;SDS011;73953;42.656;21.156;2024-02-21T03:47:14;24.15;;;16.88;;
32198;SDS011;73953;42.656;21.156;2024-02-21T03:49:41;29.88;;;19.33;;
32198;SDS011;73953;42.656;21.156;2024-02-21T03:52:08;40.05;;;22.35;;
32198;SDS011;73953;42.656;21.156;2024-02-21T03:54:35;48.42;;;29.02;;
32198;SDS011;73953;42.656;21.156;2024-02-21T03:57:02;35.53;;;22.90;;
32198;SDS011;73953;42.656;21.156;2024-02-21T03:59:29;31.88;;;20.35;;
32198;SDS011;73953;42.656;21.156;2024-02-21T04:01:56;30.55;;;19.88;;
32198;SDS011;73953;42.656;21.156;2024-02-21T04:04:24;30.05;;;18.98;;
32198;SDS011;73953;42.656;21.156;2024-02-21T04:06:51;27.23;;;17.67;;
32198;SDS011;73953;42.656;21.156;2024-02-21T04:09:18;26.70;;;18.05;;
32198;SDS011;73953;42.656;21.156;2024-02-21T04:11:45;28.10;;;17.90;;
32198;SDS011;73953;42.656;21.156;2024-02-21T04:14:12;24.95;;;16.95;;
32198;SDS011;73953;42.656;21.156;2024-02-21T04:16:40;29.63;;;19.23;;
32198;SDS011;73953;42.656;21.156;2024-02-21T04:19:07;28.70;;;19.20;;
32198;SDS011;73953;42.656;21.156;2024-02-21T04:21:35;30.30;;;20.05;;
32198;SDS011;73953;42.656;21.156;2024-02-21T04:24:04;30.13;;;20.40;;
32198;SDS011;73953;42.656;21.156;2024-02-21T04:26:33;28.80;;;18.48;;
32198;SDS011;73953;42.656;21.156;2024-02-21T04:29:00;26.30;;;17.85;;
32198;SDS011;73953;42.656;21.156;2024-02-21T04:31:28;24.38;;;15.85;;
32198;SDS011;73953;42.656;21.156;2024-02-21T04:33:56;21.65;;;15.50;;
32198;SDS011;73953;42.656;21.156;2024-02-21T04:36:23;21.20;;;14.65;;
32198;SDS011;73953;42.656;21.156;2024-02-21T04:38:51;19.13;;;13.68;;
32198;SDS011;73953;42.656;21.156;2024-02-21T04:41:18;19.55;;;13.95;;
32198;SDS011;73953;42.656;21.156;2024-02-21T04:43:47;17.63;;;12.75;;
32198;SDS011;73953;42.656;21.156;2024-02-21T04:46:15;18.80;;;12.63;;
32198;SDS011;73953;42.656;21.156;2024-02-21T04:48:42;19.35;;;12.93;;
32198;SDS011;73953;42.656;21.156;2024-02-21T04:51:11;19.00;;;13.60;;
32198;SDS011;73953;42.656;21.156;2024-02-21T04:53:38;26.95;;;17.30;;
32198;SDS011;73953;42.656;21.156;2024-02-21T04:56:05;24.98;;;15.88;;
32198;SDS011;73953;42.656;21.156;2024-02-21T04:58:32;24.63;;;15.70;;
32198;SDS011;73953;42.656;21.156;2024-02-21T05:00:59;23.67;;;16.20;;
32198;SDS011;73953;42.656;21.156;2024-02-21T05:03:27;25.50;;;18.20;;
32198;SDS011;73953;42.656;21.156;2024-02-21T05:05:53;20.30;;;14.43;;
32198;SDS011;73953;42.656;21.156;2024-02-21T05:08:21;21.45;;;14.73;;
32198;SDS011;73953;42.656;21.156;2024-02-21T05:10:48;21.27;;;15.25;;
32198;SDS011;73953;42.656;21.156;2024-02-21T05:13:15;20.77;;;15.13;;
32198;SDS011;73953;42.656;21.156;2024-02-21T05:15:42;22.17;;;14.82;;
32198;SDS011;73953;42.656;21.156;2024-02-21T05:18:09;36.45;;;22.83;;
32198;SDS011;73953;42.656;21.156;2024-02-21T05:20:36;42.30;;;25.20;;
32198;SDS011;73953;42.656;21.156;2024-02-21T05:23:04;44.95;;;26.77;;
32198;SDS011;73953;42.656;21.156;2024-02-21T05:25:31;38.58;;;24.27;;
32198;SDS011;73953;42.656;21.156;2024-02-21T05:27:58;36.22;;;22.40;;
32198;SDS011;73953;42.656;21.156;2024-02-21T05:30:29;43.72;;;27.02;;
32198;SDS011;73953;42.656;21.156;2024-02-21T05:32:56;60.40;;;34.88;;
32198;SDS011;73953;42.656;21.156;2024-02-21T05:35:27;52.38;;;32.95;;
32198;SDS011;73953;42.656;21.156;2024-02-21T05:40:22;47.38;;;30.00;;
32198;SDS011;73953;42.656;21.156;2024-02-21T05:42:49;54.78;;;32.72;;
32198;SDS011;73953;42.656;21.156;2024-02-21T05:45:18;46.30;;;30.02;;
32198;SDS011;73953;42.656;21.156;2024-02-21T05:47:45;54.35;;;32.75;;
32198;SDS011;73953;42.656;21.156;2024-02-21T05:50:12;52.55;;;32.78;;
32198;SDS011;73953;42.656;21.156;2024-02-21T05:52:39;51.58;;;30.70;;
32198;SDS011;73953;42.656;21.156;2024-02-21T05:55:07;53.72;;;32.67;;
32198;SDS011;73953;42.656;21.156;2024-02-21T05:57:34;40.55;;;25.40;;
32198;SDS011;73953;42.656;21.156;2024-02-21T06:00:05;48.67;;;28.52;;
32198;SDS011;73953;42.656;21.156;2024-02-21T06:02:32;34.70;;;23.92;;
32198;SDS011;73953;42.656;21.156;2024-02-21T06:04:59;31.25;;;20.77;;
32198;SDS011;73953;42.656;21.156;2024-02-21T06:07:26;32.25;;;20.60;;
32198;SDS011;73953;42.656;21.156;2024-02-21T06:09:53;33.15;;;20.38;;
32198;SDS011;73953;42.656;21.156;2024-02-21T06:12:20;32.70;;;20.85;;
32198;SDS011;73953;42.656;21.156;2024-02-21T06:14:48;36.00;;;21.67;;
32198;SDS011;73953;42.656;21.156;2024-02-21T06:17:15;35.33;;;20.77;;
32198;SDS011;73953;42.656;21.156;2024-02-21T06:19:42;39.33;;;22.42;;
32198;SDS011;73953;42.656;21.156;2024-02-21T06:22:10;33.28;;;22.38;;
32198;SDS011;73953;42.656;21.156;2024-02-21T06:24:37;50.10;;;28.42;;
32198;SDS011;73953;42.656;21.156;2024-02-21T06:27:06;48.70;;;28.02;;
32198;SDS011;73953;42.656;21.156;2024-02-21T06:29:36;43.72;;;27.10;;
32198;SDS011;73953;42.656;21.156;2024-02-21T06:32:03;47.15;;;26.52;;
32198;SDS011;73953;42.656;21.156;2024-02-21T06:34:31;49.05;;;27.55;;
32198;SDS011;73953;42.656;21.156;2024-02-21T06:37:00;37.78;;;23.65;;
32198;SDS011;73953;42.656;21.156;2024-02-21T06:39:27;41.13;;;24.27;;
32198;SDS011;73953;42.656;21.156;2024-02-21T06:41:56;34.53;;;21.70;;
32198;SDS011;73953;42.656;21.156;2024-02-21T06:44:29;37.55;;;24.85;;
32198;SDS011;73953;42.656;21.156;2024-02-21T06:46:56;49.03;;;26.73;;
32198;SDS011;73953;42.656;21.156;2024-02-21T06:49:25;43.55;;;27.00;;
32198;SDS011;73953;42.656;21.156;2024-02-21T06:51:53;53.92;;;27.13;;
32198;SDS011;73953;42.656;21.156;2024-02-21T06:54:20;27.55;;;18.52;;
32198;SDS011;73953;42.656;21.156;2024-02-21T06:56:47;29.40;;;16.67;;
32198;SDS011;73953;42.656;21.156;2024-02-21T06:59:14;77.15;;;39.50;;
32198;SDS011;73953;42.656;21.156;2024-02-21T07:01:47;70.82;;;40.13;;
32198;SDS011;73953;42.656;21.156;2024-02-21T07:04:15;74.20;;;41.35;;
32198;SDS011;73953;42.656;21.156;2024-02-21T07:06:42;48.88;;;27.60;;
32198;SDS011;73953;42.656;21.156;2024-02-21T07:09:09;61.22;;;35.72;;
32198;SDS011;73953;42.656;21.156;2024-02-21T07:11:36;71.55;;;39.83;;
32198;SDS011;73953;42.656;21.156;2024-02-21T07:14:04;65.05;;;39.15;;
32198;SDS011;73953;42.656;21.156;2024-02-21T07:16:31;65.03;;;37.90;;
32198;SDS011;73953;42.656;21.156;2024-02-21T07:19:00;62.63;;;37.42;;
32198;SDS011;73953;42.656;21.156;2024-02-21T07:21:27;78.25;;;37.20;;
32198;SDS011;73953;42.656;21.156;2024-02-21T07:23:54;64.95;;;37.55;;
32198;SDS011;73953;42.656;21.156;2024-02-21T07:26:21;62.60;;;36.22;;
32198;SDS011;73953;42.656;21.156;2024-02-21T07:28:49;65.00;;;38.03;;
32198;SDS011;73953;42.656;21.156;2024-02-21T07:31:16;63.80;;;37.38;;
32198;SDS011;73953;42.656;21.156;2024-02-21T07:33:44;70.07;;;39.10;;
32198;SDS011;73953;42.656;21.156;2024-02-21T07:36:11;75.68;;;38.47;;
32198;SDS011;73953;42.656;21.156;2024-02-21T07:38:38;52.97;;;33.08;;
32198;SDS011;73953;42.656;21.156;2024-02-21T07:41:07;47.28;;;32.85;;
32198;SDS011;73953;42.656;21.156;2024-02-21T07:43:34;43.72;;;30.13;;
32198;SDS011;73953;42.656;21.156;2024-02-21T07:46:01;55.05;;;30.23;;
32198;SDS011;73953;42.656;21.156;2024-02-21T07:48:28;56.92;;;32.78;;
32198;SDS011;73953;42.656;21.156;2024-02-21T07:50:59;67.05;;;38.40;;
32198;SDS011;73953;42.656;21.156;2024-02-21T07:53:26;63.85;;;35.70;;
32198;SDS011;73953;42.656;21.156;2024-02-21T07:55:53;65.28;;;37.33;;
32198;SDS011;73953;42.656;21.156;2024-02-21T07:58:21;73.60;;;37.35;;
32198;SDS011;73953;42.656;21.156;2024-02-21T08:00:48;67.15;;;38.83;;
32198;SDS011;73953;42.656;21.156;2024-02-21T08:03:15;85.15;;;46.55;;
32198;SDS011;73953;42.656;21.156;2024-02-21T08:05:44;157.63;;;73.72;;
32198;SDS011;73953;42.656;21.156;2024-02-21T08:08:12;145.35;;;64.22;;
32198;SDS011;73953;42.656;21.156;2024-02-21T08:10:45;102.03;;;51.78;;
32198;SDS011;73953;42.656;21.156;2024-02-21T08:13:12;88.40;;;51.80;;
32198;SDS011;73953;42.656;21.156;2024-02-21T08:15:39;165.10;;;80.25;;
32198;SDS011;73953;42.656;21.156;2024-02-21T08:18:08;192.10;;;102.65;;
32198;SDS011;73953;42.656;21.156;2024-02-21T08:20:35;91.60;;;51.88;;
32198;SDS011;73953;42.656;21.156;2024-02-21T08:23:02;80.93;;;48.35;;
32198;SDS011;73953;42.656;21.156;2024-02-21T08:25:30;85.40;;;45.45;;
32198;SDS011;73953;42.656;21.156;2024-02-21T08:27:58;72.00;;;42.50;;
32198;SDS011;73953;42.656;21.156;2024-02-21T08:30:25;168.27;;;67.45;;
32198;SDS011;73953;42.656;21.156;2024-02-21T08:32:52;88.38;;;47.40;;
32198;SDS011;73953;42.656;21.156;2024-02-21T08:35:21;78.20;;;44.22;;
32198;SDS011;73953;42.656;21.156;2024-02-21T08:37:51;66.75;;;40.55;;
32198;SDS011;73953;42.656;21.156;2024-02-21T08:40:18;81.78;;;44.65;;
32198;SDS011;73953;42.656;21.156;2024-02-21T08:42:48;66.65;;;40.13;;
32198;SDS011;73953;42.656;21.156;2024-02-21T08:45:16;67.03;;;37.38;;
32198;SDS011;73953;42.656;21.156;2024-02-21T08:47:43;56.30;;;30.60;;
32198;SDS011;73953;42.656;21.156;2024-02-21T08:50:11;63.70;;;34.83;;
32198;SDS011;73953;42.656;21.156;2024-02-21T08:52:53;64.00;;;36.67;;
32198;SDS011;73953;42.656;21.156;2024-02-21T08:55:20;68.35;;;37.70;;
32198;SDS011;73953;42.656;21.156;2024-02-21T08:57:49;64.53;;;34.05;;
32198;SDS011;73953;42.656;21.156;2024-02-21T09:00:17;59.70;;;34.30;;
32198;SDS011;73953;42.656;21.156;2024-02-21T09:02:44;41.35;;;24.30;;
32198;SDS011;73953;42.656;21.156;2024-02-21T09:05:11;40.92;;;22.05;;
32198;SDS011;73953;42.656;21.156;2024-02-21T09:07:39;41.25;;;21.35;;
32198;SDS011;73953;42.656;21.156;2024-02-21T09:10:06;43.70;;;22.38;;
32198;SDS011;73953;42.656;21.156;2024-02-21T09:12:33;49.80;;;23.30;;
32198;SDS011;73953;42.656;21.156;2024-02-21T09:15:00;54.10;;;24.38;;
32198;SDS011;73953;42.656;21.156;2024-02-21T09:17:28;49.97;;;22.52;;
32198;SDS011;73953;42.656;21.156;2024-02-21T09:19:57;47.00;;;20.70;;
32198;SDS011;73953;42.656;21.156;2024-02-21T09:22:27;34.03;;;18.60;;
32198;SDS011;73953;42.656;21.156;2024-02-21T09:24:54;28.55;;;16.73;;
32198;SDS011;73953;42.656;21.156;2024-02-21T09:27:22;31.67;;;18.25;;
32198;SDS011;73953;42.656;21.156;2024-02-21T09:29:49;28.80;;;16.67;;
32198;SDS011;73953;42.656;21.156;2024-02-21T09:32:17;27.45;;;15.52;;
32198;SDS011;73953;42.656;21.156;2024-02-21T09:34:45;33.38;;;15.70;;
32198;SDS011;73953;42.656;21.156;2024-02-21T09:37:13;26.15;;;14.77;;
32198;SDS011;73953;42.656;21.156;2024-02-21T09:39:40;20.27;;;13.60;;
32198;SDS011;73953;42.656;21.156;2024-02-21T09:42:07;21.83;;;13.25;;
32198;SDS011;73953;42.656;21.156;2024-02-21T09:44:37;40.42;;;22.73;;
32198;SDS011;73953;42.656;21.156;2024-02-21T09:47:11;23.60;;;14.32;;
32198;SDS011;73953;42.656;21.156;2024-02-21T09:49:40;22.98;;;14.27;;
32198;SDS011;73953;42.656;21.156;2024-02-21T09:52:08;17.05;;;11.55;;
32198;SDS011;73953;42.656;21.156;2024-02-21T09:54:36;20.10;;;12.43;;
32198;SDS011;73953;42.656;21.156;2024-02-21T09:57:03;20.35;;;12.48;;
32198;SDS011;73953;42.656;21.156;2024-02-21T09:59:32;21.25;;;12.15;;
32198;SDS011;73953;42.656;21.156;2024-02-21T10:01:59;21.05;;;12.77;;
32198;SDS011;73953;42.656;21.156;2024-02-21T10:04:28;15.13;;;11.45;;
32198;SDS011;73953;42.656;21.156;2024-02-21T10:06:55;20.23;;;13.90;;
32198;SDS011;73953;42.656;21.156;2024-02-21T10:09:23;24.65;;;14.13;;
32198;SDS011;73953;42.656;21.156;2024-02-21T10:11:50;23.50;;;14.10;;
32198;SDS011;73953;42.656;21.156;2024-02-21T10:14:18;10.57;;;6.82;;
32198;SDS011;73953;42.656;21.156;2024-02-21T10:16:48;20.25;;;9.55;;
32198;SDS011;73953;42.656;21.156;2024-02-21T10:19:19;14.80;;;11.00;;
32198;SDS011;73953;42.656;21.156;2024-02-21T10:22:06;17.52;;;12.57;;
32198;SDS011;73953;42.656;21.156;2024-02-21T10:24:35;21.42;;;13.00;;
32198;SDS011;73953;42.656;21.156;2024-02-21T10:27:06;23.30;;;15.30;;
32198;SDS011;73953;42.656;21.156;2024-02-21T10:29:35;21.63;;;12.90;;
32198;SDS011;73953;42.656;21.156;2024-02-21T10:32:09;15.68;;;11.75;;
32198;SDS011;73953;42.656;21.156;2024-02-21T10:34:37;23.10;;;13.80;;
32198;SDS011;73953;42.656;21.156;2024-02-21T10:37:05;16.63;;;12.23;;
32198;SDS011;73953;42.656;21.156;2024-02-21T10:39:33;22.00;;;11.90;;
32198;SDS011;73953;42.656;21.156;2024-02-21T10:42:01;14.55;;;10.05;;
32198;SDS011;73953;42.656;21.156;2024-02-21T10:44:32;24.58;;;12.77;;
32198;SDS011;73953;42.656;21.156;2024-02-21T10:46:59;19.25;;;10.90;;
32198;SDS011;73953;42.656;21.156;2024-02-21T10:49:29;15.43;;;9.63;;
32198;SDS011;73953;42.656;21.156;2024-02-21T10:52:06;17.23;;;11.10;;
32198;SDS011;73953;42.656;21.156;2024-02-21T10:54:50;13.70;;;9.48;;
32198;SDS011;73953;42.656;21.156;2024-02-21T10:57:20;16.02;;;10.07;;
32198;SDS011;73953;42.656;21.156;2024-02-21T10:59:49;15.65;;;9.98;;
32198;SDS011;73953;42.656;21.156;2024-02-21T11:02:16;31.30;;;14.95;;
32198;SDS011;73953;42.656;21.156;2024-02-21T11:04:44;32.80;;;21.38;;
32198;SDS011;73953;42.656;21.156;2024-02-21T11:07:12;15.88;;;11.07;;
32198;SDS011;73953;42.656;21.156;2024-02-21T11:09:39;21.65;;;13.35;;
32198;SDS011;73953;42.656;21.156;2024-02-21T11:12:06;22.80;;;12.95;;
32198;SDS011;73953;42.656;21.156;2024-02-21T11:14:34;16.23;;;11.85;;
32198;SDS011;73953;42.656;21.156;2024-02-21T11:17:15;24.50;;;13.75;;
32198;SDS011;73953;42.656;21.156;2024-02-21T11:19:43;21.30;;;11.20;;
32198;SDS011;73953;42.656;21.156;2024-02-21T11:22:14;19.65;;;12.88;;
32198;SDS011;73953;42.656;21.156;2024-02-21T11:24:44;26.02;;;13.98;;
32198;SDS011;73953;42.656;21.156;2024-02-21T11:27:20;13.02;;;9.07;;
32198;SDS011;73953;42.656;21.156;2024-02-21T11:29:48;31.58;;;15.90;;
32198;SDS011;73953;42.656;21.156;2024-02-21T11:32:19;100.33;;;56.03;;
32198;SDS011;73953;42.656;21.156;2024-02-21T11:35:00;60.97;;;31.52;;
32198;SDS011;73953;42.656;21.156;2024-02-21T11:37:35;118.07;;;54.05;;
32198;SDS011;73953;42.656;21.156;2024-02-21T11:40:06;23.95;;;11.77;;
32198;SDS011;73953;42.656;21.156;2024-02-21T11:42:38;12.60;;;7.45;;
32198;SDS011;73953;42.656;21.156;2024-02-21T11:45:06;16.48;;;8.85;;
32198;SDS011;73953;42.656;21.156;2024-02-21T11:47:33;12.18;;;6.72;;
32198;SDS011;73953;42.656;21.156;2024-02-21T11:50:00;11.48;;;6.97;;
32198;SDS011;73953;42.656;21.156;2024-02-21T11:52:28;10.75;;;7.13;;
32198;SDS011;73953;42.656;21.156;2024-02-21T11:54:55;15.70;;;7.72;;
32198;SDS011;73953;42.656;21.156;2024-02-21T11:57:31;8.65;;;6.32;;
32198;SDS011;73953;42.656;21.156;2024-02-21T11:59:58;26.40;;;9.52;;
32198;SDS011;73953;42.656;21.156;2024-02-21T12:04:56;14.60;;;7.43;;
32198;SDS011;73953;42.656;21.156;2024-02-21T12:07:24;11.70;;;7.22;;
32198;SDS011;73953;42.656;21.156;2024-02-21T12:09:51;14.38;;;8.07;;
32198;SDS011;73953;42.656;21.156;2024-02-21T12:12:21;14.65;;;7.63;;
32198;SDS011;73953;42.656;21.156;2024-02-21T12:14:53;33.03;;;9.88;;
32198;SDS011;73953;42.656;21.156;2024-02-21T12:17:21;29.75;;;9.65;;
32198;SDS011;73953;42.656;21.156;2024-02-21T12:19:49;43.67;;;9.93;;
32198;SDS011;73953;42.656;21.156;2024-02-21T12:22:18;148.50;;;20.92;;
32198;SDS011;73953;42.656;21.156;2024-02-21T12:24:45;62.85;;;11.88;;
32198;SDS011;73953;42.656;21.156;2024-02-21T12:27:15;81.00;;;15.23;;
32198;SDS011;73953;42.656;21.156;2024-02-21T12:29:42;87.75;;;16.83;;
32198;SDS011;73953;42.656;21.156;2024-02-21T12:32:09;141.73;;;21.88;;
32198;SDS011;73953;42.656;21.156;2024-02-21T12:34:36;114.28;;;21.05;;
32198;SDS011;73953;42.656;21.156;2024-02-21T12:37:19;123.95;;;23.77;;
32198;SDS011;73953;42.656;21.156;2024-02-21T12:39:47;144.65;;;25.05;;
32198;SDS011;73953;42.656;21.156;2024-02-21T12:42:15;125.60;;;21.63;;
32198;SDS011;73953;42.656;21.156;2024-02-21T12:44:42;135.68;;;27.10;;
32198;SDS011;73953;42.656;21.156;2024-02-21T12:47:10;91.45;;;19.25;;
32198;SDS011;73953;42.656;21.156;2024-02-21T12:49:37;72.72;;;13.95;;
32198;SDS011;73953;42.656;21.156;2024-02-21T12:52:09;50.90;;;10.98;;
32198;SDS011;73953;42.656;21.156;2024-02-21T12:54:37;42.03;;;10.30;;
32198;SDS011;73953;42.656;21.156;2024-02-21T12:57:04;32.35;;;9.13;;
32198;SDS011;73953;42.656;21.156;2024-02-21T12:59:31;35.70;;;10.18;;
32198;SDS011;73953;42.656;21.156;2024-02-21T13:01:59;20.10;;;6.72;;
32198;SDS011;73953;42.656;21.156;2024-02-21T13:04:26;15.00;;;6.25;;
32198;SDS011;73953;42.656;21.156;2024-02-21T13:06:53;12.65;;;5.90;;
32198;SDS011;73953;42.656;21.156;2024-02-21T13:09:20;16.85;;;7.32;;
32198;SDS011;73953;42.656;21.156;2024-02-21T13:11:47;22.65;;;8.52;;
32198;SDS011;73953;42.656;21.156;2024-02-21T13:14:14;28.63;;;9.32;;
32198;SDS011;73953;42.656;21.156;2024-02-21T13:16:41;38.10;;;9.90;;
32198;SDS011;73953;42.656;21.156;2024-02-21T13:19:08;17.52;;;7.40;;
32198;SDS011;73953;42.656;21.156;2024-02-21T13:21:36;17.27;;;6.53;;
32198;SDS011;73953;42.656;21.156;2024-02-21T13:24:03;20.38;;;7.53;;
32198;SDS011;73953;42.656;21.156;2024-02-21T13:26:31;24.92;;;8.05;;
32198;SDS011;73953;42.656;21.156;2024-02-21T13:28:58;19.38;;;6.95;;
32198;SDS011;73953;42.656;21.156;2024-02-21T13:31:26;19.27;;;7.75;;
32198;SDS011;73953;42.656;21.156;2024-02-21T13:33:53;24.08;;;8.57;;
32198;SDS011;73953;42.656;21.156;2024-02-21T13:36:20;29.15;;;8.68;;
32198;SDS011;73953;42.656;21.156;2024-02-21T13:38:48;29.30;;;10.07;;
32198;SDS011;73953;42.656;21.156;2024-02-21T13:41:15;11.88;;;7.65;;
32198;SDS011;73953;42.656;21.156;2024-02-21T13:43:43;9.88;;;6.97;;
32198;SDS011;73953;42.656;21.156;2024-02-21T13:46:10;10.52;;;7.43;;
32198;SDS011;73953;42.656;21.156;2024-02-21T13:48:38;11.43;;;6.70;;
32198;SDS011;73953;42.656;21.156;2024-02-21T13:51:05;12.52;;;8.50;;
32198;SDS011;73953;42.656;21.156;2024-02-21T13:53:32;13.88;;;7.45;;
32198;SDS011;73953;42.656;21.156;2024-02-21T13:56:00;12.10;;;8.85;;
32198;SDS011;73953;42.656;21.156;2024-02-21T13:58:28;12.50;;;8.93;;
32198;SDS011;73953;42.656;21.156;2024-02-21T14:00:55;20.80;;;11.60;;
32198;SDS011;73953;42.656;21.156;2024-02-21T14:03:23;16.55;;;9.57;;
32198;SDS011;73953;42.656;21.156;2024-02-21T14:05:52;17.35;;;9.95;;
32198;SDS011;73953;42.656;21.156;2024-02-21T14:08:19;21.83;;;10.02;;
32198;SDS011;73953;42.656;21.156;2024-02-21T14:10:46;14.18;;;8.15;;
32198;SDS011;73953;42.656;21.156;2024-02-21T14:13:14;23.45;;;9.10;;
32198;SDS011;73953;42.656;21.156;2024-02-21T14:15:43;19.27;;;9.75;;
32198;SDS011;73953;42.656;21.156;2024-02-21T14:20:40;22.65;;;8.60;;
32198;SDS011;73953;42.656;21.156;2024-02-21T14:23:07;22.80;;;8.00;;